createdAt,value
2019-03-12T00:01:58.050Z,5.80
2019-03-12T00:04:27.443Z,5.80
2019-03-12T00:06:56.784Z,5.80
2019-03-12T00:09:26.087Z,5.80
2019-03-12T00:11:55.377Z,5.80
2019-03-12T00:14:24.748Z,5.80
2019-03-12T00:16:54.143Z,5.80
2019-03-12T00:19:23.394Z,5.80
2019-03-12T00:21:52.868Z,5.90
2019-03-12T00:24:22.151Z,5.90
2019-03-12T00:26:51.510Z,5.90
2019-03-12T00:29:20.876Z,5.90
2019-03-12T00:31:50.277Z,5.80
2019-03-12T00:34:19.565Z,5.90
2019-03-12T00:36:49.149Z,5.90
2019-03-12T00:39:18.841Z,5.90
2019-03-12T00:41:48.258Z,5.90
2019-03-12T00:44:17.654Z,5.90
2019-03-12T00:46:47.070Z,5.90
2019-03-12T00:49:16.324Z,5.90
2019-03-12T00:51:45.606Z,5.90
2019-03-12T00:54:15.110Z,5.90
2019-03-12T00:56:44.380Z,5.90
2019-03-12T00:59:13.647Z,5.90
2019-03-12T01:01:43.160Z,6.00
2019-03-12T01:04:12.530Z,6.00
2019-03-12T01:06:41.872Z,5.90
2019-03-12T01:09:11.533Z,5.90
2019-03-12T01:11:40.844Z,5.90
2019-03-12T01:14:10.150Z,5.90
2019-03-12T01:16:39.446Z,6.00
2019-03-12T01:19:08.708Z,6.00
2019-03-12T01:21:37.978Z,6.00
2019-03-12T01:24:10.485Z,6.00
2019-03-12T01:26:41.404Z,6.00
2019-03-12T01:29:10.708Z,6.00
2019-03-12T01:31:39.953Z,6.00
2019-03-12T01:34:09.288Z,6.00
2019-03-12T01:36:38.577Z,6.00
2019-03-12T01:39:08.393Z,6.10
2019-03-12T01:41:37.724Z,6.10
2019-03-12T01:44:07.216Z,6.10
2019-03-12T01:46:36.603Z,6.10
2019-03-12T01:49:05.927Z,6.00
2019-03-12T01:51:35.191Z,6.00
2019-03-12T01:54:04.569Z,6.00
2019-03-12T01:56:34.537Z,5.90
2019-03-12T01:59:09.898Z,5.90
2019-03-12T02:01:39.239Z,5.90
2019-03-12T02:04:08.443Z,5.90
2019-03-12T02:06:37.731Z,5.80
2019-03-12T02:09:09.047Z,5.80
2019-03-12T02:11:38.329Z,5.80
2019-03-12T02:14:27.031Z,5.80
2019-03-12T02:16:56.637Z,5.80
2019-03-12T02:19:25.899Z,5.70
2019-03-12T02:21:55.201Z,5.70
2019-03-12T02:24:24.506Z,5.70
2019-03-12T02:26:53.778Z,5.70
2019-03-12T02:29:23.181Z,5.70
2019-03-12T02:31:52.522Z,5.70
2019-03-12T02:34:21.791Z,5.60
2019-03-12T02:36:51.295Z,5.60
2019-03-12T02:39:20.698Z,5.60
2019-03-12T02:41:49.983Z,5.70
2019-03-12T02:44:19.347Z,5.70
2019-03-12T02:46:48.620Z,5.70
2019-03-12T02:49:18.006Z,5.80
2019-03-12T02:51:47.392Z,5.80
2019-03-12T02:54:16.775Z,5.80
2019-03-12T02:56:46.134Z,5.80
2019-03-12T02:59:15.413Z,5.70
2019-03-12T03:01:44.949Z,5.70
2019-03-12T03:04:14.461Z,5.70
2019-03-12T03:06:54.681Z,5.70
2019-03-12T03:09:24.214Z,5.70
2019-03-12T03:11:53.733Z,5.60
2019-03-12T03:14:39.826Z,5.60
2019-03-12T03:17:12.261Z,5.60
2019-03-12T03:19:41.602Z,5.50
2019-03-12T03:22:10.931Z,5.50
2019-03-12T03:24:40.329Z,5.50
2019-03-12T03:27:09.724Z,5.50
2019-03-12T03:29:39.114Z,5.50
2019-03-12T03:32:08.490Z,5.60
2019-03-12T03:34:37.834Z,5.60
2019-03-12T03:37:07.131Z,5.60
2019-03-12T03:39:36.315Z,5.70
2019-03-12T03:42:05.631Z,5.70
2019-03-12T03:44:35.011Z,5.70
2019-03-12T03:47:04.402Z,5.80
2019-03-12T03:49:38.923Z,5.80
2019-03-12T03:52:08.202Z,5.80
2019-03-12T03:54:37.458Z,5.90
2019-03-12T03:57:06.838Z,5.90
2019-03-12T03:59:36.262Z,5.90
2019-03-12T04:02:05.663Z,6.00
2019-03-12T04:04:35.017Z,6.00
2019-03-12T04:07:04.387Z,6.00
2019-03-12T04:09:33.834Z,6.00
2019-03-12T04:12:03.127Z,6.00
2019-03-12T04:14:32.543Z,6.00
2019-03-12T04:17:09.194Z,6.00
2019-03-12T04:19:38.717Z,6.00
2019-03-12T04:22:08.016Z,6.00
2019-03-12T04:24:37.331Z,5.90
2019-03-12T04:27:06.712Z,5.90
2019-03-12T04:29:36.061Z,5.80
2019-03-12T04:32:05.438Z,5.80
2019-03-12T04:34:37.876Z,5.80
2019-03-12T04:37:07.228Z,5.80
2019-03-12T04:39:36.636Z,5.70
2019-03-12T04:42:05.967Z,5.70
2019-03-12T04:44:35.334Z,5.60
2019-03-12T04:47:04.635Z,5.50
2019-03-12T04:49:34.000Z,5.60
2019-03-12T04:52:03.306Z,5.50
2019-03-12T04:54:32.645Z,5.50
2019-03-12T04:57:02.048Z,5.50
2019-03-12T04:59:31.387Z,5.40
2019-03-12T05:02:00.699Z,5.40
2019-03-12T05:04:32.147Z,5.30
2019-03-12T05:07:01.524Z,5.30
2019-03-12T05:09:30.750Z,5.20
2019-03-12T05:12:00.207Z,5.10
2019-03-12T05:14:31.377Z,5.10
2019-03-12T05:17:04.380Z,5.00
2019-03-12T05:19:33.739Z,4.90
2019-03-12T05:22:04.125Z,4.90
2019-03-12T05:24:37.688Z,4.80
2019-03-12T05:27:06.933Z,4.80
2019-03-12T05:29:36.216Z,4.80
2019-03-12T05:32:06.707Z,4.80
2019-03-12T05:34:37.879Z,4.70
2019-03-12T05:37:07.260Z,4.70
2019-03-12T05:39:36.552Z,4.70
2019-03-12T05:42:11.913Z,4.60
2019-03-12T05:44:41.285Z,4.60
2019-03-12T05:47:10.887Z,4.60
2019-03-12T05:49:40.211Z,4.50
2019-03-12T05:52:09.736Z,4.50
2019-03-12T05:54:40.158Z,4.60
2019-03-12T05:57:09.623Z,4.60
2019-03-12T05:59:38.987Z,4.70
2019-03-12T06:02:08.419Z,4.90
2019-03-12T06:04:37.796Z,5.00
2019-03-12T06:07:07.119Z,5.10
2019-03-12T06:09:36.448Z,5.10
2019-03-12T06:12:06.909Z,5.20
2019-03-12T06:14:36.261Z,5.20
2019-03-12T06:17:05.651Z,5.30
2019-03-12T06:19:34.979Z,5.40
2019-03-12T06:22:04.491Z,5.40
2019-03-12T06:24:36.167Z,5.50
2019-03-12T06:27:05.537Z,5.60
2019-03-12T06:29:34.846Z,5.70
2019-03-12T06:32:29.180Z,5.70
2019-03-12T06:35:29.694Z,5.80
2019-03-12T06:38:18.007Z,5.80
2019-03-12T06:41:06.637Z,5.90
2019-03-12T06:43:53.443Z,5.90
2019-03-12T06:46:41.714Z,5.90
2019-03-12T06:49:26.192Z,6.00
2019-03-12T06:52:07.638Z,6.10
2019-03-12T06:54:46.818Z,6.10
2019-03-12T06:57:41.380Z,6.20
2019-03-12T07:00:20.779Z,6.30
2019-03-12T07:03:09.026Z,6.40
2019-03-12T07:06:19.135Z,6.50
2019-03-12T07:09:23.914Z,6.50
2019-03-12T07:12:02.563Z,6.60
2019-03-12T07:15:03.010Z,6.60
2019-03-12T07:17:51.227Z,6.60
2019-03-12T07:20:51.910Z,6.60
2019-03-12T07:23:46.015Z,6.60
2019-03-12T07:26:37.123Z,6.70
2019-03-12T07:29:34.459Z,6.90
2019-03-12T07:32:11.819Z,7.00
2019-03-12T07:35:09.473Z,7.10
2019-03-12T07:37:46.969Z,7.20
2019-03-12T07:40:41.264Z,7.30
2019-03-12T07:43:35.383Z,7.40
2019-03-12T07:46:14.151Z,7.50
2019-03-12T07:49:05.245Z,7.60
2019-03-12T07:51:56.514Z,7.70
2019-03-12T07:54:39.309Z,7.80
2019-03-12T07:57:46.179Z,7.80
2019-03-12T08:00:20.914Z,7.80
2019-03-12T08:02:57.012Z,7.90
2019-03-12T08:05:41.648Z,7.90
2019-03-12T08:08:32.789Z,7.90
2019-03-12T08:11:18.037Z,7.90
2019-03-12T08:14:06.395Z,8.00
2019-03-12T08:17:03.846Z,8.00
2019-03-12T08:19:46.330Z,8.00
2019-03-12T08:22:23.106Z,8.10
2019-03-12T08:25:00.768Z,8.20
2019-03-12T08:27:38.942Z,8.20
2019-03-12T08:30:35.041Z,8.30
2019-03-12T08:33:22.130Z,8.40
2019-03-12T08:36:00.412Z,8.40
2019-03-12T08:38:48.756Z,8.30
2019-03-12T08:41:27.591Z,8.40
2019-03-12T08:44:14.808Z,8.50
2019-03-12T08:47:08.762Z,8.60
2019-03-12T08:49:49.338Z,8.70
2019-03-12T08:52:37.637Z,8.70
2019-03-12T08:55:32.485Z,8.80
2019-03-12T08:58:19.408Z,8.80
2019-03-12T09:01:25.771Z,8.80
2019-03-12T09:04:26.139Z,8.80
2019-03-12T09:07:20.811Z,8.70
2019-03-12T09:10:06.876Z,8.70
2019-03-12T09:12:58.229Z,8.70
2019-03-12T09:15:48.723Z,8.70
2019-03-12T09:18:43.606Z,8.80
2019-03-12T09:21:24.723Z,8.90
2019-03-12T09:24:11.938Z,9.00
2019-03-12T09:27:03.449Z,9.00
2019-03-12T09:29:41.221Z,9.00
2019-03-12T09:32:41.653Z,9.00
2019-03-12T09:35:45.245Z,8.90
2019-03-12T09:38:21.958Z,8.90
2019-03-12T09:41:26.347Z,8.80
2019-03-12T09:44:20.586Z,8.90
2019-03-12T09:46:59.299Z,8.90
2019-03-12T09:49:56.615Z,8.90
2019-03-12T09:52:31.387Z,9.00
2019-03-12T09:55:18.377Z,9.10
2019-03-12T09:58:24.889Z,9.30
2019-03-12T10:01:19.665Z,9.40
2019-03-12T10:04:16.961Z,9.40
2019-03-12T10:07:03.919Z,9.50
2019-03-12T10:09:45.915Z,9.40
2019-03-12T10:12:46.342Z,9.50
2019-03-12T10:15:33.604Z,9.60
2019-03-12T10:18:20.558Z,9.70
2019-03-12T10:21:21.198Z,9.80
2019-03-12T10:24:02.144Z,9.90
2019-03-12T10:26:48.896Z,10.20
2019-03-12T10:29:27.451Z,10.40
2019-03-12T10:32:02.228Z,10.70
2019-03-12T10:34:54.561Z,10.80
2019-03-12T10:37:58.130Z,10.90
2019-03-12T10:40:52.422Z,10.90
2019-03-12T10:43:49.954Z,10.80
2019-03-12T10:46:39.452Z,10.70
2019-03-12T10:49:08.806Z,10.60
2019-03-12T10:51:38.133Z,10.60
2019-03-12T10:54:07.443Z,10.50
2019-03-12T10:56:36.886Z,10.40
2019-03-12T10:59:06.146Z,10.40
2019-03-12T11:01:35.460Z,10.40
2019-03-12T11:04:04.755Z,10.50
2019-03-12T11:06:34.046Z,10.80
2019-03-12T11:09:04.855Z,11.10
2019-03-12T11:11:34.233Z,11.40
2019-03-12T11:14:04.404Z,11.50
2019-03-12T11:16:33.802Z,11.40
2019-03-12T11:19:03.099Z,11.20
2019-03-12T11:21:32.383Z,11.10
2019-03-12T11:24:01.719Z,11.10
2019-03-12T11:26:30.975Z,11.00
2019-03-12T11:29:00.199Z,10.90
2019-03-12T11:31:29.509Z,10.80
2019-03-12T11:33:58.805Z,10.80
2019-03-12T11:36:28.177Z,10.80
2019-03-12T11:38:57.476Z,10.80
2019-03-12T11:41:26.772Z,10.90
2019-03-12T11:43:56.107Z,11.00
2019-03-12T11:46:25.432Z,10.90
2019-03-12T11:48:54.767Z,10.90
2019-03-12T11:51:24.166Z,11.00
2019-03-12T11:53:53.511Z,11.20
2019-03-12T11:56:22.856Z,11.20
2019-03-12T11:58:52.168Z,11.20
2019-03-12T12:01:21.519Z,11.20
2019-03-12T12:03:50.885Z,11.30
2019-03-12T12:06:20.634Z,11.50
2019-03-12T12:08:50.983Z,11.70
2019-03-12T12:11:20.368Z,11.90
2019-03-12T12:13:49.743Z,12.70
2019-03-12T12:16:19.055Z,13.10
2019-03-12T12:18:48.318Z,13.20
2019-03-12T12:21:17.634Z,13.10
2019-03-12T12:23:47.003Z,13.20
2019-03-12T12:26:16.284Z,13.40
2019-03-12T12:28:45.628Z,13.40
2019-03-12T12:31:14.922Z,13.40
2019-03-12T12:33:44.266Z,13.20
2019-03-12T12:36:13.600Z,13.20
2019-03-12T12:38:44.688Z,13.30
2019-03-12T12:41:14.098Z,13.40
2019-03-12T12:43:43.468Z,13.50
2019-03-12T12:46:12.826Z,13.50
2019-03-12T12:48:42.032Z,13.50
2019-03-12T12:51:11.400Z,13.50
2019-03-12T12:53:40.830Z,14.30
2019-03-12T12:56:10.053Z,15.00
2019-03-12T12:58:39.379Z,15.70
2019-03-12T13:01:08.813Z,16.60
2019-03-12T13:03:38.110Z,16.80
2019-03-12T13:06:07.463Z,17.50
2019-03-12T13:08:36.683Z,17.80
2019-03-12T13:11:06.057Z,17.70
2019-03-12T13:13:35.362Z,18.60
2019-03-12T13:18:43.095Z,21.20
2019-03-12T13:21:12.417Z,22.40
2019-03-12T13:23:41.717Z,23.50
2019-03-12T13:26:11.019Z,24.40
2019-03-12T13:28:40.447Z,25.20
2019-03-12T13:31:09.965Z,25.70
2019-03-12T13:33:39.281Z,25.80
2019-03-12T13:36:14.389Z,25.00
2019-03-12T13:38:46.549Z,23.80
2019-03-12T13:41:14.605Z,22.60
2019-03-12T13:43:43.993Z,21.50
2019-03-12T13:46:14.535Z,20.90
2019-03-12T13:48:45.414Z,20.80
2019-03-12T13:51:14.745Z,21.00
2019-03-12T13:53:44.077Z,21.00
2019-03-12T13:56:13.445Z,20.70
2019-03-12T13:58:42.921Z,20.30
2019-03-12T14:01:12.302Z,19.80
2019-03-12T14:03:41.619Z,19.20
2019-03-12T14:06:11.073Z,18.70
2019-03-12T14:08:40.477Z,18.20
2019-03-12T14:11:09.846Z,17.90
2019-03-12T14:13:39.508Z,17.90
2019-03-12T14:16:08.865Z,18.10
2019-03-12T14:18:38.254Z,18.90
2019-03-12T14:21:10.790Z,19.80
2019-03-12T14:23:45.826Z,20.50
2019-03-12T14:26:15.334Z,20.50
2019-03-12T14:28:44.605Z,20.60
2019-03-12T14:31:13.890Z,20.90
2019-03-12T14:33:43.195Z,20.70
2019-03-12T14:36:12.649Z,20.00
2019-03-12T14:38:41.958Z,19.00
2019-03-12T14:41:11.311Z,18.10
2019-03-12T14:43:40.586Z,17.40
2019-03-12T14:46:09.926Z,16.90
2019-03-12T14:48:50.554Z,16.40
2019-03-12T14:52:01.582Z,16.00
2019-03-12T14:54:30.939Z,15.60
2019-03-12T14:57:00.233Z,15.20
2019-03-12T14:59:29.587Z,14.90
2019-03-12T15:01:58.914Z,14.50
2019-03-12T15:04:28.417Z,14.20
2019-03-12T15:06:59.999Z,14.00
2019-03-12T15:09:35.400Z,13.70
2019-03-12T15:12:12.037Z,13.60
2019-03-12T15:14:41.901Z,13.50
2019-03-12T15:17:11.152Z,13.50
2019-03-12T15:19:42.117Z,13.50
2019-03-12T15:22:11.385Z,13.40
2019-03-12T15:24:40.872Z,13.30
2019-03-12T15:27:10.179Z,13.20
2019-03-12T15:29:41.145Z,13.00
2019-03-12T15:32:10.603Z,12.80
2019-03-12T15:34:40.400Z,12.70
2019-03-12T15:37:09.947Z,12.70
2019-03-12T15:39:40.331Z,12.60
2019-03-12T15:42:09.523Z,12.60
2019-03-12T15:44:40.330Z,12.60
2019-03-12T15:47:09.611Z,12.50
2019-03-12T15:49:42.847Z,12.40
2019-03-12T15:52:10.035Z,12.40
2019-03-12T15:54:39.442Z,12.30
2019-03-12T15:57:08.721Z,12.20
2019-03-12T15:59:38.246Z,12.10
2019-03-12T16:02:07.745Z,12.10
2019-03-12T16:04:46.447Z,12.00
2019-03-12T16:07:18.032Z,11.90
2019-03-12T16:09:47.655Z,11.90
2019-03-12T16:12:17.060Z,11.80
2019-03-12T16:14:46.466Z,11.70
2019-03-12T16:17:15.852Z,11.70
2019-03-12T16:19:45.251Z,11.70
2019-03-12T16:22:14.773Z,11.60
2019-03-12T16:24:44.296Z,11.50
2019-03-12T16:27:13.677Z,11.50
2019-03-12T16:29:48.094Z,11.50
2019-03-12T16:32:19.280Z,11.40
2019-03-12T16:34:48.418Z,11.30
2019-03-12T16:37:25.384Z,11.20
2019-03-12T16:39:55.008Z,11.20
2019-03-12T16:42:34.537Z,11.10
2019-03-12T16:45:00.653Z,11.00
2019-03-12T16:47:29.977Z,11.00
2019-03-12T16:49:59.227Z,10.90
2019-03-12T16:52:28.624Z,10.80
2019-03-12T16:54:59.083Z,10.70
2019-03-12T16:57:31.274Z,10.60
2019-03-12T17:00:00.605Z,10.50
2019-03-12T17:02:29.970Z,10.50
2019-03-12T17:04:59.469Z,10.40
2019-03-12T17:07:29.924Z,10.40
2019-03-12T17:09:59.435Z,10.40
2019-03-12T17:12:28.883Z,10.30
2019-03-12T17:14:58.211Z,10.30
2019-03-12T17:17:27.682Z,10.30
2019-03-12T17:19:57.018Z,10.30
2019-03-12T17:22:26.587Z,10.20
2019-03-12T17:24:56.213Z,10.20
2019-03-12T17:27:25.697Z,10.20
2019-03-12T17:29:55.116Z,10.10
2019-03-12T17:32:24.475Z,10.10
2019-03-12T17:34:54.080Z,10.10
2019-03-12T17:37:23.410Z,10.10
2019-03-12T17:39:52.747Z,10.10
2019-03-12T17:42:22.058Z,10.10
2019-03-12T17:44:54.504Z,10.10
2019-03-12T17:47:24.068Z,10.10
2019-03-12T17:49:56.164Z,10.10
2019-03-12T17:52:25.583Z,10.10
2019-03-12T17:54:54.998Z,10.00
2019-03-12T17:57:24.396Z,10.00
2019-03-12T17:59:53.764Z,9.90
2019-03-12T18:02:23.173Z,10.00
2019-03-12T18:04:52.518Z,9.90
2019-03-12T18:07:21.886Z,9.90
2019-03-12T18:09:51.175Z,9.90
2019-03-12T18:12:20.597Z,9.90
2019-03-12T18:14:50.161Z,9.90
2019-03-12T18:17:21.331Z,9.90
2019-03-12T18:19:50.534Z,9.80
2019-03-12T18:22:19.944Z,9.80
2019-03-12T18:24:49.304Z,9.80
2019-03-12T18:27:18.656Z,9.80
2019-03-12T18:29:48.110Z,9.80
2019-03-12T18:32:17.576Z,9.80
2019-03-12T18:34:53.723Z,9.80
2019-03-12T18:37:36.358Z,9.70
2019-03-12T18:40:09.661Z,9.70
2019-03-12T18:42:40.269Z,9.70
2019-03-12T18:45:12.094Z,9.60
2019-03-12T18:47:49.571Z,9.60
2019-03-12T18:50:20.686Z,9.60
2019-03-12T18:52:51.231Z,9.60
2019-03-12T18:55:47.549Z,9.60
2019-03-12T18:58:16.942Z,9.60
2019-03-12T19:00:48.898Z,9.60
2019-03-12T19:03:18.626Z,9.50
2019-03-12T19:05:47.976Z,9.50
2019-03-12T19:08:17.666Z,9.50
2019-03-12T19:10:47.019Z,9.60
2019-03-12T19:13:16.401Z,9.50
2019-03-12T19:15:51.827Z,9.60
2019-03-12T19:18:21.198Z,9.60
2019-03-12T19:20:50.550Z,9.60
2019-03-12T19:23:19.908Z,9.60
2019-03-12T19:25:49.437Z,9.60
2019-03-12T19:28:24.191Z,9.60
2019-03-12T19:30:56.377Z,9.60
2019-03-12T19:33:25.967Z,9.60
2019-03-12T19:35:55.432Z,9.70
2019-03-12T19:38:24.884Z,9.70
2019-03-12T19:40:54.491Z,9.60
2019-03-12T19:43:24.069Z,9.60
2019-03-12T19:45:55.356Z,9.70
2019-03-12T19:48:24.836Z,9.70
2019-03-12T19:50:54.445Z,9.70
2019-03-12T19:53:23.863Z,9.70
2019-03-12T19:56:01.574Z,9.70
2019-03-12T19:58:31.188Z,9.70
2019-03-12T20:01:02.130Z,9.60
2019-03-12T20:03:33.065Z,9.70
2019-03-12T20:06:14.054Z,9.60
2019-03-12T20:08:50.426Z,9.60
2019-03-12T20:12:30.606Z,9.60
2019-03-12T20:15:50.161Z,9.70
2019-03-12T20:19:03.587Z,9.60
2019-03-12T20:22:07.130Z,9.60
2019-03-12T20:25:23.842Z,9.60
2019-03-12T20:28:36.361Z,9.60
2019-03-12T20:31:41.758Z,9.60
2019-03-12T20:34:46.936Z,9.60
2019-03-12T20:38:14.385Z,9.60
2019-03-12T20:41:22.990Z,9.50
2019-03-12T20:44:32.035Z,9.50
2019-03-12T20:47:37.722Z,9.50
2019-03-12T20:50:37.578Z,9.40
2019-03-12T20:53:42.895Z,9.40
2019-03-12T20:57:05.944Z,9.40
2019-03-12T21:03:47.139Z,9.40
2019-03-12T21:10:29.075Z,9.30
2019-03-12T21:13:34.052Z,9.30
2019-03-12T21:16:47.349Z,9.40
2019-03-12T21:20:08.394Z,9.30
2019-03-12T21:23:26.662Z,9.30
2019-03-12T21:26:38.110Z,9.30
2019-03-12T21:29:32.841Z,9.40
2019-03-12T21:32:02.199Z,9.40
2019-03-12T21:34:31.635Z,9.40
2019-03-12T21:37:01.060Z,9.40
2019-03-12T21:39:31.524Z,9.40
2019-03-12T21:42:00.873Z,9.40
2019-03-12T21:44:30.356Z,9.40
2019-03-12T21:47:13.918Z,9.30
2019-03-12T21:49:43.325Z,9.30
2019-03-12T21:52:12.719Z,9.30
2019-03-12T21:54:43.607Z,9.30
2019-03-12T21:57:12.960Z,9.20
2019-03-12T21:59:42.351Z,9.30
2019-03-12T22:02:11.712Z,9.20
2019-03-12T22:04:41.208Z,9.20
2019-03-12T22:07:10.611Z,9.20
2019-03-12T22:09:39.919Z,9.10
2019-03-12T22:12:09.323Z,9.10
2019-03-12T22:14:41.202Z,9.10
2019-03-12T22:17:10.547Z,9.10
2019-03-12T22:19:39.866Z,9.10
2019-03-12T22:22:34.458Z,9.10
2019-03-12T22:25:04.078Z,9.00
2019-03-12T22:27:33.278Z,9.00
2019-03-12T22:30:02.732Z,9.10
2019-03-12T22:32:32.101Z,9.10
2019-03-12T22:35:01.490Z,9.10
2019-03-12T22:37:31.150Z,9.10
2019-03-12T22:40:00.464Z,9.10
2019-03-12T22:42:35.986Z,9.10
2019-03-12T22:45:06.044Z,9.10
2019-03-12T22:47:35.472Z,9.10
2019-03-12T22:50:05.132Z,9.10
2019-03-12T22:52:34.445Z,9.10
2019-03-12T22:55:04.271Z,9.10
2019-03-12T22:57:33.636Z,9.10
2019-03-12T23:00:02.915Z,9.10
2019-03-12T23:02:32.284Z,9.10
2019-03-12T23:05:44.524Z,9.10
2019-03-12T23:08:13.874Z,9.10
2019-03-12T23:10:43.538Z,9.10
2019-03-12T23:13:13.005Z,9.10
2019-03-12T23:15:42.292Z,9.10
2019-03-12T23:18:11.641Z,9.10
2019-03-12T23:20:41.031Z,9.10
2019-03-12T23:23:10.341Z,9.10
2019-03-12T23:25:39.713Z,9.10
2019-03-12T23:28:09.191Z,9.20
2019-03-12T23:30:38.611Z,9.20
2019-03-12T23:33:07.935Z,9.20
2019-03-12T23:35:37.815Z,9.20
2019-03-12T23:38:07.155Z,9.20
2019-03-12T23:40:36.509Z,9.20
2019-03-12T23:43:06.040Z,9.20
2019-03-12T23:45:35.392Z,9.20
2019-03-12T23:48:04.801Z,9.20
2019-03-12T23:50:34.214Z,9.20
2019-03-12T23:53:03.645Z,9.20
2019-03-12T23:55:32.986Z,9.20
2019-03-12T23:58:02.218Z,9.20
